createdAt,value
2022-07-31T00:02:38.257Z,3.13
2022-07-31T00:07:45.174Z,2.82
2022-07-31T00:12:53.307Z,2.44
2022-07-31T00:18:00.099Z,2.63
2022-07-31T00:23:08.418Z,2.48
2022-07-31T00:28:14.908Z,2.65
2022-07-31T00:33:26.974Z,1.74
2022-07-31T00:38:27.409Z,1.88
2022-07-31T00:43:30.784Z,1.72
2022-07-31T00:48:36.961Z,1.69
2022-07-31T00:53:43.397Z,1.66
2022-07-31T00:58:50.475Z,1.61
2022-07-31T01:03:57.166Z,1.55
2022-07-31T01:09:03.877Z,1.73
2022-07-31T01:14:11.359Z,1.71
2022-07-31T01:19:18.500Z,1.66
2022-07-31T01:24:25.195Z,1.58
2022-07-31T01:29:39.043Z,1.59
2022-07-31T01:34:35.631Z,1.68
2022-07-31T01:39:45.861Z,1.63
2022-07-31T01:44:41.998Z,1.59
2022-07-31T01:49:48.534Z,1.56
2022-07-31T01:54:56.971Z,1.64
2022-07-31T02:00:04.485Z,1.44
2022-07-31T02:05:10.746Z,1.57
2022-07-31T02:10:17.054Z,1.71
2022-07-31T02:15:23.277Z,1.67
2022-07-31T02:20:29.619Z,1.62
2022-07-31T02:25:36.771Z,1.48
2022-07-31T02:30:43.000Z,1.33
2022-07-31T02:35:49.365Z,1.60
2022-07-31T02:40:57.817Z,1.53
2022-07-31T02:46:04.080Z,1.51
2022-07-31T02:51:10.415Z,1.57
2022-07-31T02:56:16.551Z,1.53
2022-07-31T03:01:23.045Z,1.57
2022-07-31T03:06:29.110Z,1.59
2022-07-31T03:11:35.540Z,1.57
2022-07-31T03:16:41.777Z,1.32
2022-07-31T03:21:48.162Z,1.50
2022-07-31T03:26:54.581Z,1.63
2022-07-31T03:32:01.746Z,1.46
2022-07-31T03:37:06.973Z,1.56
2022-07-31T03:42:18.415Z,1.82
2022-07-31T03:47:18.786Z,1.62
2022-07-31T03:52:26.188Z,1.81
2022-07-31T03:57:34.224Z,1.58
2022-07-31T04:02:38.452Z,1.79
2022-07-31T04:07:44.541Z,1.65
2022-07-31T04:12:50.756Z,1.76
2022-07-31T04:17:57.246Z,1.97
2022-07-31T04:23:04.840Z,2.10
2022-07-31T04:28:10.717Z,1.99
2022-07-31T04:33:16.958Z,1.90
2022-07-31T04:38:25.529Z,1.96
2022-07-31T04:43:32.070Z,2.15
2022-07-31T04:48:38.683Z,2.11
2022-07-31T04:53:44.833Z,2.24
2022-07-31T04:58:50.983Z,2.04
2022-07-31T05:04:05.558Z,2.02
2022-07-31T05:09:04.396Z,1.91
2022-07-31T05:14:09.716Z,2.50
2022-07-31T05:19:15.848Z,2.14
2022-07-31T05:24:22.599Z,1.75
2022-07-31T05:29:29.205Z,1.78
2022-07-31T05:34:35.454Z,1.95
2022-07-31T05:39:43.871Z,1.81
2022-07-31T05:44:50.244Z,2.05
2022-07-31T05:49:56.353Z,1.82
2022-07-31T05:55:02.821Z,1.82
2022-07-31T06:00:08.988Z,1.97
2022-07-31T06:05:15.044Z,2.00
2022-07-31T06:10:21.144Z,1.92
2022-07-31T06:15:27.343Z,2.05
2022-07-31T06:20:34.760Z,2.21
2022-07-31T06:25:41.680Z,1.95
2022-07-31T06:30:47.661Z,1.94
2022-07-31T06:35:56.092Z,2.01
2022-07-31T06:41:03.285Z,1.96
2022-07-31T06:46:09.577Z,2.17
2022-07-31T06:51:31.138Z,1.94
2022-07-31T06:56:23.723Z,2.28
2022-07-31T07:01:29.875Z,2.13
2022-07-31T07:06:36.612Z,2.22
2022-07-31T07:11:44.115Z,2.04
2022-07-31T07:16:50.394Z,2.03
2022-07-31T07:21:57.560Z,2.03
2022-07-31T07:27:03.788Z,1.94
2022-07-31T07:32:11.962Z,2.07
2022-07-31T07:37:19.489Z,1.88
2022-07-31T07:42:25.629Z,2.06
2022-07-31T07:48:05.090Z,2.04
2022-07-31T07:52:39.954Z,2.11
2022-07-31T07:57:44.632Z,1.78
2022-07-31T08:03:47.089Z,1.98
2022-07-31T08:07:56.720Z,1.81
2022-07-31T08:13:04.960Z,1.72
2022-07-31T08:18:11.193Z,2.23
2022-07-31T08:23:18.068Z,1.77
2022-07-31T08:28:25.400Z,2.14
2022-07-31T08:33:31.379Z,1.97
2022-07-31T08:38:39.073Z,1.74
2022-07-31T08:44:01.750Z,2.69
2022-07-31T08:48:57.150Z,1.74
2022-07-31T08:53:53.440Z,1.60
2022-07-31T08:59:00.948Z,2.02
2022-07-31T09:04:07.093Z,1.96
2022-07-31T09:09:13.331Z,1.82
2022-07-31T09:14:20.996Z,1.76
2022-07-31T09:19:52.104Z,1.82
2022-07-31T09:24:39.353Z,1.77
2022-07-31T09:29:39.161Z,2.41
2022-07-31T09:34:46.171Z,2.91
2022-07-31T09:39:54.625Z,1.82
2022-07-31T09:45:00.565Z,1.89
2022-07-31T09:50:06.844Z,1.88
2022-07-31T09:55:15.987Z,1.87
2022-07-31T10:00:18.849Z,1.77
2022-07-31T10:05:24.946Z,1.80
2022-07-31T10:10:31.223Z,1.97
2022-07-31T10:15:37.338Z,2.30
2022-07-31T10:20:43.677Z,1.82
2022-07-31T10:25:53.339Z,1.81
2022-07-31T10:30:56.851Z,1.76
2022-07-31T10:36:03.107Z,2.14
2022-07-31T10:41:10.300Z,2.08
2022-07-31T10:46:16.566Z,1.91
2022-07-31T10:51:22.944Z,2.11
2022-07-31T10:56:29.153Z,1.86
2022-07-31T11:01:36.419Z,1.81
2022-07-31T11:06:42.636Z,1.93
2022-07-31T11:11:48.869Z,2.15
2022-07-31T11:16:54.975Z,1.93
2022-07-31T11:22:01.529Z,2.15
2022-07-31T11:27:07.467Z,2.52
2022-07-31T11:32:13.897Z,2.61
2022-07-31T11:37:20.042Z,2.67
2022-07-31T11:42:28.193Z,2.78
2022-07-31T11:48:12.293Z,2.80
2022-07-31T11:52:41.145Z,3.40
2022-07-31T11:57:52.112Z,3.35
2022-07-31T12:02:53.485Z,3.36
2022-07-31T12:07:59.365Z,3.34
2022-07-31T12:13:05.320Z,3.16
2022-07-31T12:18:11.427Z,2.69
2022-07-31T12:23:40.244Z,2.73
2022-07-31T12:28:23.432Z,2.73
2022-07-31T12:33:29.368Z,2.52
2022-07-31T12:38:44.761Z,2.39
2022-07-31T12:43:50.420Z,2.08
2022-07-31T12:48:46.998Z,2.18
2022-07-31T12:53:53.462Z,2.27
2022-07-31T12:58:59.665Z,2.47
2022-07-31T13:04:05.886Z,2.63
2022-07-31T13:09:11.612Z,3.28
2022-07-31T13:14:17.974Z,3.43
2022-07-31T13:19:24.156Z,3.54
2022-07-31T13:24:30.823Z,3.45
2022-07-31T13:29:37.036Z,3.38
2022-07-31T13:34:43.475Z,3.70
2022-07-31T13:39:49.752Z,3.73
2022-07-31T13:44:59.523Z,4.77
2022-07-31T13:50:02.551Z,4.75
2022-07-31T13:55:08.897Z,5.34
2022-07-31T14:00:16.129Z,5.86
2022-07-31T14:05:22.501Z,6.13
2022-07-31T14:10:28.632Z,6.10
2022-07-31T14:16:35.194Z,7.50
2022-07-31T14:21:41.365Z,11.26
2022-07-31T14:26:47.325Z,8.95
2022-07-31T14:31:53.499Z,10.14
2022-07-31T14:36:59.734Z,10.80
2022-07-31T14:42:06.187Z,10.69
2022-07-31T14:47:12.246Z,10.51
2022-07-31T14:52:18.378Z,9.34
2022-07-31T14:57:24.686Z,9.08
2022-07-31T15:02:30.847Z,9.55
2022-07-31T15:07:43.601Z,9.76
2022-07-31T15:12:42.789Z,9.16
2022-07-31T15:17:49.086Z,9.36
2022-07-31T15:22:55.279Z,9.37
2022-07-31T15:28:01.638Z,9.39
2022-07-31T15:33:07.847Z,14.37
2022-07-31T15:38:14.198Z,9.34
2022-07-31T15:43:20.378Z,9.90
2022-07-31T15:48:26.685Z,9.41
2022-07-31T15:53:39.154Z,9.39
2022-07-31T15:58:38.688Z,9.56
2022-07-31T16:03:50.421Z,9.33
2022-07-31T16:08:56.138Z,9.20
2022-07-31T16:14:04.154Z,8.09
2022-07-31T16:19:10.781Z,8.22
2022-07-31T16:24:16.489Z,7.67
2022-07-31T16:30:00.970Z,7.66
2022-07-31T16:34:28.010Z,7.02
2022-07-31T16:39:34.298Z,7.02
2022-07-31T16:44:40.566Z,6.75
2022-07-31T16:49:47.025Z,6.88
2022-07-31T16:54:53.538Z,7.27
2022-07-31T17:00:00.338Z,7.63
2022-07-31T17:05:07.269Z,7.16
2022-07-31T17:10:15.231Z,7.07
2022-07-31T17:15:23.094Z,7.38
2022-07-31T17:20:29.772Z,7.80
2022-07-31T17:25:36.575Z,7.75
2022-07-31T17:30:43.510Z,7.33
2022-07-31T17:35:50.256Z,8.63
2022-07-31T17:40:57.194Z,8.12
2022-07-31T17:46:09.345Z,8.28
2022-07-31T17:51:10.521Z,8.38
2022-07-31T17:56:17.263Z,7.91
2022-07-31T18:01:28.796Z,8.37
2022-07-31T18:06:30.375Z,8.31
2022-07-31T18:11:37.194Z,8.75
2022-07-31T18:16:43.457Z,8.40
2022-07-31T18:21:49.790Z,8.30
2022-07-31T18:26:56.017Z,8.29
2022-07-31T18:32:02.496Z,13.24
2022-07-31T18:37:08.522Z,8.82
2022-07-31T18:42:14.840Z,8.84
2022-07-31T18:47:21.697Z,8.79
2022-07-31T18:52:28.492Z,8.64
2022-07-31T18:57:35.291Z,8.53
2022-07-31T19:02:42.164Z,7.88
2022-07-31T19:07:49.104Z,7.03
2022-07-31T19:12:55.810Z,7.04
2022-07-31T19:18:02.337Z,4.22
2022-07-31T19:23:12.462Z,3.38
2022-07-31T19:28:15.194Z,3.51
2022-07-31T19:33:20.139Z,3.45
2022-07-31T19:38:26.305Z,2.57
2022-07-31T19:43:32.634Z,1.99
2022-07-31T19:48:39.177Z,1.40
2022-07-31T19:53:45.466Z,1.53
2022-07-31T19:58:51.985Z,1.61
2022-07-31T20:03:59.245Z,2.28
2022-07-31T20:09:05.545Z,1.36
2022-07-31T20:14:12.215Z,1.18
2022-07-31T20:19:18.646Z,1.31
2022-07-31T20:24:26.126Z,1.63
2022-07-31T20:29:33.061Z,1.08
2022-07-31T20:34:40.168Z,1.10
2022-07-31T20:39:46.961Z,1.09
2022-07-31T20:44:55.406Z,1.03
2022-07-31T20:50:02.165Z,0.91
2022-07-31T20:55:10.033Z,0.89
2022-07-31T21:00:16.863Z,0.97
2022-07-31T21:05:27.109Z,0.97
2022-07-31T21:10:30.219Z,0.98
2022-07-31T21:15:43.316Z,0.85
2022-07-31T21:20:51.041Z,0.86
2022-07-31T21:25:49.704Z,0.77
2022-07-31T21:31:00.569Z,1.11
2022-07-31T21:35:59.893Z,1.07
2022-07-31T21:41:06.675Z,1.13
2022-07-31T21:46:13.749Z,1.34
2022-07-31T21:51:20.716Z,1.43
2022-07-31T21:56:25.669Z,1.42
2022-07-31T22:01:32.629Z,1.51
2022-07-31T22:06:40.306Z,1.26
2022-07-31T22:12:01.269Z,1.28
2022-07-31T22:16:55.666Z,1.19
2022-07-31T22:22:02.479Z,1.30
2022-07-31T22:27:08.910Z,1.32
2022-07-31T22:32:14.854Z,1.22
2022-07-31T22:37:21.688Z,1.29
2022-07-31T22:42:28.928Z,1.51
2022-07-31T22:47:35.806Z,1.69
2022-07-31T22:52:42.409Z,1.65
2022-07-31T22:57:49.798Z,1.73
2022-07-31T23:02:56.894Z,1.84
2022-07-31T23:08:03.538Z,2.04
2022-07-31T23:13:10.334Z,1.83
2022-07-31T23:18:17.225Z,2.00
2022-07-31T23:23:24.245Z,2.02
2022-07-31T23:28:33.539Z,2.95
2022-07-31T23:33:40.289Z,3.21
2022-07-31T23:38:46.894Z,3.45
2022-07-31T23:43:55.609Z,3.09
2022-07-31T23:49:01.779Z,3.19
2022-07-31T23:54:08.139Z,3.51
2022-07-31T23:59:14.386Z,3.22
